Time;durP1;ratioP1;P1;durP2;ratioP2;P2;SDS_P1;SDS_P2;PMS_P1;PMS_P2;Temp;Humidity;BMP_temperature;BMP_pressure;BME280_temperature;BME280_humidity;BME280_pressure;Samples;Min_cycle;Max_cycle;Signal;HPM_P1;HPM_P2
2023/09/29 00:00:44;;;;;;;;;;;;;;;;;;;;;
2023/09/29 00:10:20;;;;;;;;;;;;;;;;;;;;;
2023/09/29 00:13:36;;;;;;;;;;;;;;;;;;;;;
2023/09/29 00:23:03;;;;;;;;;;;;;;;;;;;;;
2023/09/29 00:29:01;;;;;;;;;;;;;;;;;;;;;
2023/09/29 00:32:00;;;;;;;;;;;;;;;;;;;;;
2023/09/29 00:34:45;;;;;;;;;5.25;3.00;;;;;22.46;72.16;101088.69;4998593;28;67401;-72
2023/09/29 00:37:26;;;;;;;;;4.00;3.00;;;;;22.40;72.27;101081.00;4999724;28;45652;-72
2023/09/29 00:40:14;;;;;;;;;3.75;3.75;;;;;22.53;72.22;101108.97;4988851;28;45543;-72
2023/09/29 00:43:29;;;;;;;;;;;;;;;;;;;;;
2023/09/29 00:46:52;;;;;;;;;;;;;;;;;;;;;
2023/09/29 00:53:19;;;;;;;;;5.00;5.00;;;;;22.42;72.32;101092.63;4995061;28;46371;-72
2023/09/29 01:03:07;;;;;;;;;4.00;4.00;;;;;22.28;72.24;101038.41;4996383;28;46701;-72
2023/09/29 01:05:54;;;;;;;;;5.50;4.75;;;;;22.33;72.82;101052.53;4994917;28;46209;-72
2023/09/29 01:12:56;;;;;;;;;;;;;;;;;;;;;
2023/09/29 01:16:10;;;;;;;;;;;;;;;;;;;;;
2023/09/29 01:19:26;;;;;;;;;;;;;;;;;;;;;
2023/09/29 01:22:34;;;;;;;;;;;;;;;;;;;;;
2023/09/29 01:28:47;;;;;;;;;;;;;;;;;;;;;
2023/09/29 01:32:09;;;;;;;;;;;;;;;;;;;;;
2023/09/29 01:38:29;;;;;;;;;6.25;5.00;;;;;22.37;73.58;101065.78;4861071;29;45602;-72
2023/09/29 01:42:11;;;;;;;;;;;;;;;;;;;;;
2023/09/29 01:44:59;;;;;;;;;;;;;;;;;;;;;
2023/09/29 01:47:56;;;;;;;;;;;;;;;;;;;;;
2023/09/29 02:00:49;;;;;;;;;2.25;2.25;;;;;22.41;73.43;101068.28;4990991;28;45464;-72
2023/09/29 02:04:03;;;;;;;;;;;;;;;;;;;;;
2023/09/29 02:07:00;;;;;;;;;;;;;;;;;;;;;
2023/09/29 02:09:52;;;;;;;;;3.50;3.50;;;;;22.24;73.57;101037.78;4989172;28;76332;-72
2023/09/29 02:13:17;;;;;;;;;;;;;;;;;;;;;
2023/09/29 02:15:46;;;;;;;;;6.00;4.50;;;;;22.23;73.67;101048.75;4994329;28;67539;-72
2023/09/29 02:18:52;;;;;;;;;;;;;;;;;;;;;
2023/09/29 02:21:52;;;;;;;;;3.25;3.25;;;;;22.13;73.05;101038.59;4978251;28;75927;-72
2023/09/29 02:24:42;;;;;;;;;3.75;3.75;;;;;22.35;73.33;101086.81;4977261;28;45568;-72
2023/09/29 02:27:31;;;;;;;;;;;;;;;;;;;;;
2023/09/29 02:30:30;;;;;;;;;;;;;;;;;;;;;
2023/09/29 02:36:07;;;;;;;;;3.00;3.00;;;;;22.24;72.74;101066.81;4981051;28;45561;-72
2023/09/29 02:38:50;;;;;;;;;;;;;;;;;;;;;
2023/09/29 02:44:36;;;;;;;;;;;;;;;;;;;;;
2023/09/29 02:47:49;;;;;;;;;;;;;;;;;;;;;
2023/09/29 02:50:43;;;;;;;;;4.00;3.00;;;;;22.16;72.57;101068.25;4997811;28;67816;-72
2023/09/29 02:57:27;;;;;;;;;;;;;;;;;;;;;
2023/09/29 03:06:56;;;;;;;;;;;;;;;;;;;;;
2023/09/29 03:09:35;;;;;;;;;;;;;;;;;;;;;
2023/09/29 03:12:26;;;;;;;;;2.75;2.00;;;;;21.98;73.23;101066.94;4999728;28;73111;-72
2023/09/29 03:18:49;;;;;;;;;1.75;0.00;;;;;22.07;73.23;101077.13;4988412;28;45689;-72
2023/09/29 03:34:10;;;;;;;;;;;;;;;;;;;;;
2023/09/29 03:37:12;;;;;;;;;;;;;;;;;;;;;
2023/09/29 03:47:00;;;;;;;;;;;;;;;;;;;;;
2023/09/29 03:49:51;;;;;;;;;1.75;1.75;;;;;21.89;73.96;101059.50;4996960;28;72048;-72
2023/09/29 03:52:29;;;;;;;;;2.00;2.00;;;;;21.94;74.06;101070.88;5000380;28;45448;-72
2023/09/29 03:58:18;;;;;;;;;;;;;;;;;;;;;
2023/09/29 04:00:57;;;;;;;;;3.50;2.00;;;;;21.88;74.10;101068.63;4994821;28;73351;-72
2023/09/29 04:04:21;;;;;;;;;;;;;;;;;;;;;
2023/09/29 04:07:13;;;;;;;;;1.75;1.00;;;;;21.74;74.46;101062.38;4993954;28;72728;-72
2023/09/29 04:10:30;;;;;;;;;;;;;;;;;;;;;
2023/09/29 04:13:18;;;;;;;;;3.00;3.00;;;;;21.58;74.30;101059.91;4994383;28;72961;-72
2023/09/29 04:16:13;;;;;;;;;;;;;;;;;;;;;
2023/09/29 04:19:53;;;;;;;;;;;;;;;;;;;;;
2023/09/29 04:26:10;;;;;;;;;2.00;2.00;;;;;21.62;74.70;101109.47;4998271;28;45316;-72
2023/09/29 04:28:54;;;;;;;;;;;;;;;;;;;;;
2023/09/29 04:32:10;;;;;;;;;;;;;;;;;;;;;
2023/09/29 04:35:17;;;;;;;;;3.50;2.00;;;;;21.57;75.11;101122.53;4995712;28;75330;-72
2023/09/29 04:38:57;;;;;;;;;;;;;;;;;;;;;
2023/09/29 04:41:52;;;;;;;;;;;;;;;;;;;;;
2023/09/29 04:45:08;;;;;;;;;;;;;;;;;;;;;
2023/09/29 04:48:17;;;;;;;;;;;;;;;;;;;;;
2023/09/29 04:57:56;;;;;;;;;;;;;;;;;;;;;
2023/09/29 05:00:45;;;;;;;;;2.50;2.00;;;;;21.56;75.37;101145.22;4995877;28;76346;-72
2023/09/29 05:03:31;;;;;;;;;;;;;;;;;;;;;
2023/09/29 05:06:35;;;;;;;;;;;;;;;;;;;;;
2023/09/29 05:09:46;;;;;;;;;5.50;3.75;;;;;21.56;75.89;101159.66;4998067;28;71416;-72
2023/09/29 05:15:55;;;;;;;;;;;;;;;;;;;;;
2023/09/29 05:22:25;;;;;;;;;;;;;;;;;;;;;
2023/09/29 05:25:13;;;;;;;;;;;;;;;;;;;;;
2023/09/29 05:38:00;;;;;;;;;;;;;;;;;;;;;
2023/09/29 05:44:33;;;;;;;;;;;;;;;;;;;;;
2023/09/29 05:50:37;;;;;;;;;;;;;;;;;;;;;
2023/09/29 05:57:00;;;;;;;;;7.00;4.00;;;;;21.35;75.68;101188.31;4992482;28;45523;-72
2023/09/29 06:00:26;;;;;;;;;;;;;;;;;;;;;
2023/09/29 06:03:38;;;;;;;;;;;;;;;;;;;;;
2023/09/29 06:06:11;;;;;;;;;;;;;;;;;;;;;
2023/09/29 06:08:44;;;;;;;;;4.00;2.50;;;;;21.16;75.66;101170.59;5000769;28;67693;-72
2023/09/29 06:11:13;;;;;;;;;6.00;5.00;;;;;21.32;75.49;101192.13;5001696;28;45352;-71
2023/09/29 06:14:07;;;;;;;;;6.50;4.50;;;;;21.42;74.95;101223.09;4999215;28;45972;-68
2023/09/29 06:16:47;;;;;;;;;6.75;6.25;;;;;21.47;75.38;101230.94;4997392;28;45415;-69
2023/09/29 06:19:23;;;;;;;;;;;;;;;;;;;;;
2023/09/29 06:59:58;;;;;;;;;5.50;5.00;;;;;21.29;72.78;101269.22;898236;25;46392;-67
2023/09/29 07:02:31;;;;;;;;;6.75;5.50;;;;;21.22;73.26;101269.78;5077207;27;47103;-67
2023/09/29 07:05:49;;;;;;;;;;;;;;;;;;;;;
2023/09/29 07:08:39;;;;;;;;;10.00;7.00;;;;;21.44;73.18;101308.03;5062533;27;68934;-68
2023/09/29 07:11:44;;;;;;;;;;;;;;;;;;;;;
2023/09/29 07:14:15;;;;;;;;;10.50;7.25;;;;;21.36;72.56;101307.69;5065873;27;74408;-69
2023/09/29 07:16:54;;;;;;;;;;;;;;;;;;;;;
2023/09/29 07:19:19;;;;;;;;;5.75;4.50;;;;;21.57;73.17;101364.28;5075181;27;69860;-68
2023/09/29 07:21:50;;;;;;;;;7.25;3.25;;;;;21.42;72.55;101342.56;5066262;27;45586;-68
2023/09/29 07:24:41;;;;;;;;;2.75;2.75;;;;;21.51;73.02;101351.09;5093954;27;46990;-68
2023/09/29 07:27:08;;;;;;;;;4.75;4.75;;;;;21.40;73.02;101327.34;5073594;27;45434;-69
2023/09/29 07:29:51;;;;;;;;;5.00;4.50;;;;;21.41;73.35;101340.81;5084589;27;45658;-68
2023/09/29 07:32:17;;;;;;;;;5.00;3.00;;;;;21.51;72.90;101360.09;5069398;28;45506;-67
2023/09/29 07:34:45;;;;;;;;;5.50;2.25;;;;;21.53;72.94;101374.44;5073988;27;46461;-67
2023/09/29 07:37:10;;;;;;;;;6.50;4.00;;;;;21.25;73.21;101324.72;5083477;27;45564;-67
2023/09/29 07:39:36;;;;;;;;;6.75;2.75;;;;;21.62;73.63;101378.41;5079562;27;45455;-67
2023/09/29 07:42:01;;;;;;;;;5.50;2.75;;;;;21.44;72.86;101362.34;5093670;27;45500;-67
2023/09/29 07:44:27;;;;;;;;;6.00;3.00;;;;;21.46;72.87;101357.66;5071399;27;48078;-67
2023/09/29 07:46:53;;;;;;;;;2.75;2.75;;;;;21.45;72.82;101369.53;5063016;28;45498;-67
2023/09/29 07:49:20;;;;;;;;;5.00;3.00;;;;;21.62;72.74;101394.69;5069543;28;45582;-67
2023/09/29 07:51:45;;;;;;;;;5.50;2.75;;;;;21.31;73.08;101345.16;5093278;27;45589;-67
2023/09/29 07:54:11;;;;;;;;;3.50;2.00;;;;;21.42;72.84;101385.16;5073429;28;47014;-67
2023/09/29 07:56:36;;;;;;;;;2.00;2.00;;;;;21.45;73.13;101388.53;5077532;28;45591;-67
2023/09/29 07:59:02;;;;;;;;;3.75;3.00;;;;;21.46;73.23;101390.25;5078078;28;45441;-67
2023/09/29 08:01:28;;;;;;;;;6.00;3.25;;;;;21.47;73.43;101407.47;5073075;27;45466;-68
2023/09/29 08:03:57;;;;;;;;;1.00;1.00;;;;;21.62;73.34;101436.31;5074910;27;46886;-71
2023/09/29 08:06:24;;;;;;;;;3.00;1.00;;;;;21.28;73.84;101384.25;5087396;27;45861;-69
2023/09/29 08:09:02;;;;;;;;;1.75;1.00;;;;;21.37;73.51;101411.78;5066872;28;45582;-74
2023/09/29 08:11:30;;;;;;;;;3.00;1.00;;;;;21.55;73.65;101444.97;5090954;27;45549;-71
2023/09/29 08:21:53;;;;;;;;;;;;;;;;;;;;;
2023/09/29 08:31:35;;;;;;;;;1.25;1.25;;;;;21.64;73.96;101490.53;5026682;28;45644;-70
2023/09/29 08:37:47;;;;;;;;;1.00;1.00;;;;;21.64;73.71;101501.41;5051647;28;46288;-70
2023/09/29 08:40:16;;;;;;;;;2.50;1.00;;;;;21.64;74.24;101517.72;5069518;28;46507;-70
2023/09/29 08:42:56;;;;;;;;;0.00;0.00;;;;;21.40;73.52;101474.00;5076347;27;45402;-70
2023/09/29 08:45:29;;;;;;;;;1.00;1.00;;;;;21.30;73.21;101476.47;5072458;28;45473;-70
2023/09/29 08:48:12;;;;;;;;;;;;;;;;;;;;;
2023/09/29 08:51:06;;;;;;;;;;;;;;;;;;;;;
2023/09/29 08:53:40;;;;;;;;;2.00;0.00;;;;;21.37;72.81;101494.09;5081425;27;71979;-71
2023/09/29 08:56:21;;;;;;;;;;;;;;;;;;;;;
2023/09/29 08:58:55;;;;;;;;;1.00;0.00;;;;;21.54;72.23;101532.88;5060302;28;72493;-70
2023/09/29 09:01:58;;;;;;;;;;;;;;;;;;;;;
2023/09/29 09:04:34;;;;;;;;;;;;;;;;;;;;;
2023/09/29 09:07:07;;;;;;;;;0.00;0.00;;;;;21.46;72.17;101514.34;5067793;27;67503;-69
2023/09/29 09:09:35;;;;;;;;;0.00;0.00;;;;;21.46;71.58;101520.63;5073378;27;45432;-70
2023/09/29 09:12:08;;;;;;;;;1.00;0.00;;;;;21.65;71.64;101562.91;5073046;27;46535;-70
2023/09/29 09:14:43;;;;;;;;;0.00;0.00;;;;;21.52;71.06;101546.56;5070428;27;45529;-70
2023/09/29 09:17:10;;;;;;;;;0.00;0.00;;;;;21.63;71.60;101570.28;5060215;28;45360;-69
2023/09/29 09:20:02;;;;;;;;;;;;;;;;;;;;;
2023/09/29 09:22:32;;;;;;;;;0.75;0.00;;;;;21.51;70.71;101558.41;5069823;28;73787;-70
2023/09/29 09:25:18;;;;;;;;;0.50;0.00;;;;;21.49;71.44;101554.06;5071314;27;45572;-70
2023/09/29 09:27:51;;;;;;;;;0.00;0.00;;;;;21.65;71.08;101587.34;5074782;28;45575;-70
2023/09/29 09:30:25;;;;;;;;;0.00;0.00;;;;;21.70;71.35;101606.09;5074782;27;45606;-70
2023/09/29 09:32:51;;;;;;;;;0.00;0.00;;;;;21.63;70.72;101602.91;5068074;27;47700;-69
2023/09/29 09:35:26;;;;;;;;;0.00;0.00;;;;;21.53;70.94;101580.88;5067864;27;46005;-70
2023/09/29 09:38:18;;;;;;;;;0.00;0.00;;;;;21.52;70.61;101581.00;5069704;27;45698;-73
2023/09/29 09:40:46;;;;;;;;;0.00;0.00;;;;;21.57;71.01;101604.19;5066708;28;46413;-70
2023/09/29 09:43:12;;;;;;;;;0.25;0.00;;;;;21.59;71.23;101621.25;5078831;27;47032;-70
2023/09/29 09:45:39;;;;;;;;;0.00;0.00;;;;;21.47;71.51;101619.34;5065586;28;45458;-70
2023/09/29 09:48:09;;;;;;;;;0.50;0.00;;;;;21.46;70.92;101612.97;5074988;28;45515;-70
2023/09/29 09:53:30;;;;;;;;;0.00;0.00;;;;;21.50;71.44;101621.88;5069175;27;46588;-71
2023/09/29 09:56:07;;;;;;;;;2.00;0.00;;;;;21.61;70.75;101645.59;5077372;27;46089;-70
2023/09/29 09:58:38;;;;;;;;;0.00;0.00;;;;;21.53;71.28;101628.91;5067858;27;45584;-70
2023/09/29 10:01:15;;;;;;;;;0.50;0.00;;;;;21.67;71.03;101661.50;5065506;27;45874;-70
2023/09/29 10:04:06;;;;;;;;;;;;;;;;;;;;;
2023/09/29 10:06:36;;;;;;;;;0.00;0.00;;;;;21.52;70.41;101635.31;5078613;27;71945;-70
2023/09/29 10:09:49;;;;;;;;;0.00;0.00;;;;;21.56;70.30;101642.31;5067954;28;45573;-70
2023/09/29 10:13:11;;;;;;;;;;;;;;;;;;;;;
2023/09/29 10:16:16;;;;;;;;;;;;;;;;;;;;;
2023/09/29 10:18:53;;;;;;;;;1.00;0.00;;;;;21.63;69.65;101670.81;5064521;27;71295;-70
2023/09/29 10:21:43;;;;;;;;;0.00;0.00;;;;;21.41;69.39;101647.72;5057074;27;45694;-70
2023/09/29 10:24:17;;;;;;;;;0.00;0.00;;;;;21.40;69.80;101651.41;5080040;27;45715;-70
2023/09/29 10:27:05;;;;;;;;;1.00;1.00;;;;;21.48;68.85;101663.66;5068066;27;46466;-70
2023/09/29 10:29:35;;;;;;;;;2.00;1.00;;;;;21.52;69.21;101670.63;5057910;27;45632;-72
2023/09/29 10:32:14;;;;;;;;;0.25;0.00;;;;;21.49;69.19;101666.28;5079064;28;45515;-71
2023/09/29 10:34:44;;;;;;;;;0.00;0.00;;;;;21.54;69.09;101675.00;5080661;27;45662;-71
2023/09/29 10:37:17;;;;;;;;;0.50;0.50;;;;;21.52;68.79;101679.66;5065104;28;48332;-71
2023/09/29 10:39:50;;;;;;;;;1.75;1.00;;;;;21.50;69.11;101672.56;5079834;28;45433;-71
2023/09/29 10:42:23;;;;;;;;;1.25;1.00;;;;;21.52;68.78;101673.34;5081558;27;45438;-71
2023/09/29 10:44:52;;;;;;;;;2.00;1.00;;;;;21.52;68.77;101670.63;5075265;28;45634;-71
2023/09/29 10:47:32;;;;;;;;;0.75;0.75;;;;;21.67;68.48;101702.28;5065388;28;47777;-71
2023/09/29 10:50:21;;;;;;;;;;;;;;;;;;;;;
2023/09/29 10:52:47;;;;;;;;;2.75;2.00;;;;;21.80;67.75;101718.63;5061863;27;68853;-71
2023/09/29 10:55:20;;;;;;;;;0.25;0.25;;;;;21.71;67.86;101698.38;5066481;27;45595;-71
2023/09/29 10:57:49;;;;;;;;;1.00;1.00;;;;;21.57;67.92;101679.38;5061948;27;46058;-70
2023/09/29 11:00:40;;;;;;;;;2.75;1.00;;;;;21.58;67.83;101671.09;5047593;28;45836;-71
2023/09/29 11:03:08;;;;;;;;;1.25;1.00;;;;;21.67;67.51;101690.50;5063932;27;45598;-72
2023/09/29 11:05:33;;;;;;;;;2.50;2.00;;;;;21.68;67.37;101701.28;5058200;28;46238;-71
2023/09/29 11:07:59;;;;;;;;;1.00;1.00;;;;;21.74;67.34;101705.47;5066938;27;47004;-71
2023/09/29 11:10:25;;;;;;;;;2.00;0.00;;;;;21.67;66.42;101696.84;5064704;27;45874;-70
2023/09/29 11:12:51;;;;;;;;;1.00;1.00;;;;;21.77;67.02;101711.56;5072818;27;45439;-69
2023/09/29 11:15:18;;;;;;;;;1.00;1.00;;;;;21.70;66.68;101690.31;5063066;27;46072;-69
2023/09/29 11:17:48;;;;;;;;;1.00;1.00;;;;;21.91;66.40;101734.28;5067373;27;46924;-76
2023/09/29 11:20:58;;;;;;;;;1.00;1.00;;;;;21.89;66.69;101728.06;5064285;27;45541;-71
2023/09/29 11:23:11;;;;;;;;;1.00;0.00;;;;;21.93;66.47;101738.63;5058868;28;45503;-72
2023/09/29 11:25:58;;;;;;;;;2.00;1.00;;;;;21.97;65.77;101734.75;5064575;27;45970;-71
2023/09/29 11:28:32;;;;;;;;;3.25;0.25;;;;;21.98;65.52;101749.19;5057735;27;47543;-71
2023/09/29 11:30:59;;;;;;;;;1.50;1.50;;;;;21.95;65.77;101735.81;5064851;28;45550;-71
2023/09/29 11:33:45;;;;;;;;;3.25;1.00;;;;;21.99;64.98;101749.09;5061024;28;46065;-70
2023/09/29 11:36:23;;;;;;;;;2.00;1.00;;;;;22.06;64.69;101752.28;5073004;27;46063;-71
2023/09/29 11:39:07;;;;;;;;;1.75;1.75;;;;;21.83;64.91;101708.47;5066371;27;46446;-71
2023/09/29 11:44:41;;;;;;;;;1.75;1.75;;;;;22.16;64.79;101756.16;5050676;27;45783;-75
2023/09/29 11:47:19;;;;;;;;;;;;;;;;;;;;;
2023/09/29 11:49:44;;;;;;;;;2.00;0.75;;;;;21.90;64.08;101729.78;5057909;27;75444;-71
2023/09/29 11:52:10;;;;;;;;;3.00;2.00;;;;;22.02;64.34;101742.59;5063082;27;45853;-71
2023/09/29 11:54:47;;;;;;;;;2.00;1.00;;;;;22.19;64.21;101775.00;5073643;27;45784;-72
2023/09/29 11:57:28;;;;;;;;;;;;;;;;;;;;;
2023/09/29 12:00:17;;;;;;;;;1.50;0.00;;;;;22.18;62.86;101778.69;5067729;27;73927;-70
2023/09/29 12:02:43;;;;;;;;;1.00;1.00;;;;;22.21;62.77;101781.19;5072444;27;47140;-72
2023/09/29 12:05:16;;;;;;;;;3.00;2.00;;;;;22.13;62.09;101771.81;5076070;28;45713;-72
2023/09/29 12:07:41;;;;;;;;;2.00;0.75;;;;;22.18;61.71;101792.28;5063193;28;46673;-71
2023/09/29 12:10:18;;;;;;;;;;;;;;;;;;;;;
2023/09/29 12:13:04;;;;;;;;;1.00;1.00;;;;;22.11;61.98;101760.16;5073548;28;73023;-71
2023/09/29 12:15:31;;;;;;;;;1.75;1.75;;;;;22.00;61.76;101748.16;5072260;27;45580;-71
2023/09/29 12:18:00;;;;;;;;;2.25;0.25;;;;;22.18;61.26;101775.97;5068554;27;45760;-72
2023/09/29 12:20:27;;;;;;;;;1.00;1.00;;;;;22.18;61.42;101773.25;5072696;28;47565;-72
2023/09/29 12:22:55;;;;;;;;;1.75;1.00;;;;;22.12;61.46;101762.78;5074546;27;45382;-73
2023/09/29 12:25:21;;;;;;;;;2.50;1.50;;;;;22.21;61.10;101778.47;5066911;27;46648;-72
2023/09/29 12:27:49;;;;;;;;;1.00;1.00;;;;;22.25;61.23;101779.16;5063685;28;45657;-73
2023/09/29 12:30:17;;;;;;;;;2.00;2.00;;;;;22.24;60.79;101782.88;5066360;28;47169;-72
2023/09/29 12:32:46;;;;;;;;;2.75;2.00;;;;;22.33;60.27;101812.19;5077281;27;45565;-73
2023/09/29 12:35:25;;;;;;;;;;;;;;;;;;;;;
2023/09/29 12:37:51;;;;;;;;;1.25;0.75;;;;;22.12;60.79;101772.75;5061434;28;71753;-72
2023/09/29 12:40:22;;;;;;;;;1.00;1.00;;;;;22.27;60.43;101803.53;5064404;28;45445;-73
2023/09/29 12:42:48;;;;;;;;;2.00;1.75;;;;;22.23;60.43;101786.53;5073508;27;46016;-73
2023/09/29 12:45:21;;;;;;;;;1.00;1.00;;;;;22.24;60.84;101785.59;5074641;27;45588;-73
2023/09/29 12:51:20;;;;;;;;;6.00;4.00;;;;;22.23;59.69;101797.41;5052235;28;46693;-72
2023/09/29 12:53:53;;;;;;;;;2.00;2.00;;;;;22.20;59.47;101787.63;5066074;27;45534;-72
2023/09/29 12:56:28;;;;;;;;;3.00;2.00;;;;;22.42;59.82;101815.28;5060687;28;45494;-72
2023/09/29 12:59:08;;;;;;;;;1.00;1.00;;;;;22.21;59.50;101791.22;5068551;27;45501;-72
2023/09/29 13:02:27;;;;;;;;;;;;;;;;;;;;;
2023/09/29 13:05:57;;;;;;;;;2.25;2.25;;;;;22.42;58.90;101818.91;5078033;27;72742;-70
2023/09/29 13:12:21;;;;;;;;;;;;;;;;;;;;;
2023/09/29 13:14:48;;;;;;;;;2.00;2.00;;;;;22.30;57.59;101782.50;5059588;27;76389;-72
2023/09/29 13:17:13;;;;;;;;;2.00;2.00;;;;;22.50;57.09;101807.50;5069870;27;45610;-71
2023/09/29 13:19:39;;;;;;;;;2.75;2.00;;;;;22.31;57.26;101783.38;5064692;27;45318;-70
2023/09/29 13:22:38;;;;;;;;;2.25;2.25;;;;;22.31;57.13;101783.38;5072684;28;45333;-71
2023/09/29 13:25:18;;;;;;;;;;;;;;;;;;;;;
2023/09/29 13:31:21;;;;;;;;;;;;;;;;;;;;;
2023/09/29 13:34:35;;;;;;;;;;;;;;;;;;;;;
2023/09/29 13:37:41;;;;;;;;;1.00;1.00;;;;;22.49;56.28;101784.00;5070135;27;76677;-70
2023/09/29 13:40:19;;;;;;;;;;;;;;;;;;;;;
2023/09/29 13:42:58;;;;;;;;;4.00;1.50;;;;;22.49;55.33;101771.28;5075765;27;67177;-71
2023/09/29 13:51:49;;;;;;;;;;;;;;;;;;;;;
2023/09/29 13:54:54;;;;;;;;;;;;;;;;;;;;;
2023/09/29 13:57:47;;;;;;;;;2.50;2.00;;;;;22.73;53.58;101839.50;5055412;28;73050;-71
2023/09/29 14:00:23;;;;;;;;;2.00;2.00;;;;;22.66;53.39;101826.44;5074375;27;47318;-70
2023/09/29 14:03:06;;;;;;;;;1.75;1.50;;;;;22.57;53.07;101817.03;5067519;27;45608;-71
2023/09/29 14:05:41;;;;;;;;;1.50;1.50;;;;;22.51;53.25;101799.25;5078355;27;45430;-70
2023/09/29 14:08:27;;;;;;;;;5.50;2.25;;;;;22.71;52.73;101829.72;5077865;27;45318;-70
2023/09/29 14:11:12;;;;;;;;;3.50;2.00;;;;;22.56;52.97;101798.94;5083864;27;48218;-70
2023/09/29 14:14:07;;;;;;;;;;;;;;;;;;;;;
2023/09/29 14:19:59;;;;;;;;;2.00;2.00;;;;;22.65;52.74;101824.66;5058395;27;45683;-75
2023/09/29 14:35:33;;;;;;;;;5.75;4.25;;;;;22.84;51.18;101857.00;5129965;22;45414;-75
2023/09/29 14:37:59;;;;;;;;;3.75;2.25;;;;;22.74;51.15;101829.50;5039864;28;45339;-76
2023/09/29 14:40:26;;;;;;;;;1.75;1.75;;;;;22.84;51.80;101849.69;5036759;28;45767;-76
2023/09/29 14:42:52;;;;;;;;;3.00;2.00;;;;;22.86;51.29;101841.44;5033563;28;45409;-76
2023/09/29 14:45:17;;;;;;;;;1.25;1.25;;;;;22.83;50.92;101828.88;5039099;28;45521;-76
2023/09/29 14:47:42;;;;;;;;;6.00;3.00;;;;;22.86;50.52;101822.38;5035692;28;45538;-76
2023/09/29 14:50:08;;;;;;;;;4.00;3.00;;;;;22.86;50.70;101828.69;5037860;28;45323;-76
2023/09/29 14:52:34;;;;;;;;;3.50;3.50;;;;;22.82;51.01;101819.00;5036200;28;45370;-78
2023/09/29 14:55:04;;;;;;;;;3.00;2.00;;;;;22.88;50.57;101840.31;5037621;28;46104;-76
2023/09/29 14:57:29;;;;;;;;;5.00;5.00;;;;;22.89;50.42;101844.81;5034001;28;45425;-76
2023/09/29 14:59:55;;;;;;;;;4.00;2.75;;;;;22.86;50.68;101834.13;5036257;28;45531;-76
2023/09/29 15:02:20;;;;;;;;;5.00;2.50;;;;;22.90;50.58;101846.56;5037202;28;45363;-77
2023/09/29 15:04:47;;;;;;;;;4.25;4.25;;;;;22.83;50.41;101844.34;5036430;28;54116;-76
2023/09/29 15:07:12;;;;;;;;;5.00;5.00;;;;;22.90;50.36;101856.56;5019064;28;45609;-76
2023/09/29 15:09:38;;;;;;;;;3.00;3.00;;;;;22.92;50.33;101860.94;5032156;28;45686;-76
2023/09/29 15:12:03;;;;;;;;;3.75;3.00;;;;;22.88;50.45;101853.06;5034051;28;45486;-76
2023/09/29 15:14:30;;;;;;;;;4.00;4.00;;;;;22.91;50.00;101858.31;5038618;28;45557;-76
2023/09/29 15:16:55;;;;;;;;;3.50;3.50;;;;;22.95;50.02;101859.84;5034625;28;45681;-76
2023/09/29 15:19:20;;;;;;;;;4.25;4.00;;;;;22.94;50.04;101856.25;5038236;28;49578;-76
2023/09/29 15:21:46;;;;;;;;;4.00;4.00;;;;;22.93;49.92;101853.63;5037639;28;45386;-76
2023/09/29 15:24:11;;;;;;;;;5.00;4.00;;;;;22.94;49.71;101852.69;5035953;28;45450;-76
2023/09/29 15:26:37;;;;;;;;;6.25;4.00;;;;;22.94;49.95;101858.97;5027578;28;52357;-76
2023/09/29 15:29:03;;;;;;;;;6.00;6.00;;;;;22.94;49.83;101852.69;5033123;28;45325;-76
2023/09/29 15:31:28;;;;;;;;;4.00;4.00;;;;;22.92;49.67;101855.50;5036810;28;45647;-76
2023/09/29 15:33:55;;;;;;;;;4.00;3.25;;;;;22.95;50.41;101854.41;5037035;28;46219;-76
2023/09/29 15:36:20;;;;;;;;;5.50;3.50;;;;;22.95;50.13;101859.84;5037081;28;45605;-76
2023/09/29 15:38:45;;;;;;;;;6.00;4.00;;;;;22.90;50.31;101849.28;5016766;28;45380;-76
2023/09/29 15:41:11;;;;;;;;;4.25;4.00;;;;;22.92;50.72;101852.78;5036612;28;47529;-76
2023/09/29 15:43:36;;;;;;;;;3.00;3.00;;;;;22.88;51.09;101853.94;5036965;28;45414;-76
2023/09/29 15:46:10;;;;;;;;;3.25;3.25;;;;;22.84;51.59;101846.97;5037172;28;45349;-76
2023/09/29 15:48:38;;;;;;;;;4.00;4.00;;;;;22.90;52.44;101865.63;5039001;28;45510;-76
2023/09/29 15:51:03;;;;;;;;;5.00;3.50;;;;;22.89;52.53;101869.31;5038572;28;45387;-77
2023/09/29 15:53:29;;;;;;;;;4.25;4.25;;;;;22.83;53.30;101866.13;5037228;28;46944;-76
2023/09/29 15:55:54;;;;;;;;;6.25;4.00;;;;;22.86;53.38;101865.94;5036067;28;45246;-77
2023/09/29 15:58:20;;;;;;;;;4.25;3.00;;;;;22.76;53.67;101857.50;5037561;28;45475;-76
2023/09/29 16:00:45;;;;;;;;;6.00;5.00;;;;;22.86;53.44;101887.69;5036736;28;45487;-76
2023/09/29 16:03:10;;;;;;;;;6.25;5.00;;;;;22.83;53.55;101879.72;5037691;28;45323;-76
2023/09/29 16:05:36;;;;;;;;;7.00;3.75;;;;;22.85;53.71;101875.91;5038050;28;57232;-76
2023/09/29 16:08:02;;;;;;;;;3.00;3.00;;;;;22.84;53.88;101884.22;5037576;28;45398;-76
2023/09/29 16:10:28;;;;;;;;;6.00;3.75;;;;;22.82;54.32;101875.25;5036981;28;45440;-76
2023/09/29 16:12:53;;;;;;;;;6.25;4.25;;;;;22.76;53.60;101879.25;5037139;28;46783;-76
2023/09/29 16:15:19;;;;;;;;;5.00;4.75;;;;;22.74;53.52;101883.94;5034911;28;45596;-76
2023/09/29 16:17:45;;;;;;;;;6.00;5.00;;;;;22.75;53.75;101877.50;5035322;28;45410;-76
2023/09/29 16:20:11;;;;;;;;;7.00;5.75;;;;;22.74;54.31;101868.47;5035722;28;45452;-77
2023/09/29 16:22:36;;;;;;;;;1.75;1.00;;;;;22.64;54.72;101870.06;5037254;28;46568;-76
2023/09/29 16:25:04;;;;;;;;;5.00;5.00;;;;;22.67;54.46;101886.19;5037004;28;45294;-76
2023/09/29 16:27:30;;;;;;;;;4.25;2.75;;;;;22.63;54.59;101891.94;5037141;28;45389;-76
2023/09/29 16:29:55;;;;;;;;;5.50;3.25;;;;;22.60;54.46;101895.72;5036511;28;45387;-76
2023/09/29 16:32:21;;;;;;;;;6.50;4.00;;;;;22.60;54.65;101892.13;5019816;28;47658;-77
2023/09/29 16:34:46;;;;;;;;;5.75;4.00;;;;;22.64;54.77;101910.03;5037196;28;45328;-76
2023/09/29 16:37:14;;;;;;;;;3.00;3.00;;;;;22.64;54.50;101908.16;5034538;28;45390;-76
2023/09/29 16:39:39;;;;;;;;;4.00;4.00;;;;;22.61;54.24;101907.50;5029483;28;45437;-76
2023/09/29 16:42:05;;;;;;;;;2.50;2.00;;;;;22.57;54.41;101906.81;5033772;28;46048;-76
2023/09/29 16:44:30;;;;;;;;;2.50;2.50;;;;;22.62;54.36;101931.88;5035738;28;45463;-76
2023/09/29 16:46:58;;;;;;;;;5.00;3.50;;;;;22.58;54.40;101931.19;5037046;28;45342;-76
2023/09/29 16:49:23;;;;;;;;;4.00;3.50;;;;;22.56;54.41;101933.13;5035762;28;46239;-76
2023/09/29 16:51:49;;;;;;;;;5.00;4.50;;;;;22.50;54.28;101922.66;5037813;28;45233;-76
2023/09/29 16:54:19;;;;;;;;;4.50;3.00;;;;;22.47;54.84;101933.75;5033233;28;45571;-76
2023/09/29 16:56:45;;;;;;;;;5.50;3.75;;;;;22.42;54.97;101944.03;5036718;28;45315;-76
2023/09/29 16:59:11;;;;;;;;;6.00;4.25;;;;;22.41;54.47;101952.31;5035970;28;45462;-76
2023/09/29 17:01:37;;;;;;;;;5.25;4.25;;;;;22.34;54.71;101949.97;5036850;28;46363;-76
2023/09/29 17:04:04;;;;;;;;;4.50;3.00;;;;;22.35;54.72;101964.44;5015020;28;45882;-76
2023/09/29 17:06:31;;;;;;;;;4.75;4.75;;;;;22.30;55.05;101962.03;5038629;28;45320;-76
2023/09/29 17:08:56;;;;;;;;;4.00;2.50;;;;;22.29;54.66;101962.97;5035938;28;45782;-76
2023/09/29 17:11:21;;;;;;;;;5.00;4.75;;;;;22.26;55.23;101982.16;5035468;28;56409;-76
2023/09/29 17:13:47;;;;;;;;;9.75;6.50;;;;;22.14;55.21;101980.22;5035558;28;45503;-76
2023/09/29 17:16:13;;;;;;;;;4.50;4.50;;;;;22.18;54.73;101987.19;5038359;28;45437;-77
2023/09/29 17:18:40;;;;;;;;;6.25;4.00;;;;;22.11;55.44;101988.56;5030596;28;45609;-76
2023/09/29 17:21:14;;;;;;;;;8.00;4.75;;;;;22.10;55.25;101984.97;5038223;28;46228;-76
2023/09/29 17:23:46;;;;;;;;;6.75;5.00;;;;;22.08;55.43;101995.06;5038974;28;45535;-76
2023/09/29 17:26:12;;;;;;;;;6.00;6.00;;;;;22.04;54.88;101995.34;5038923;28;45406;-76
2023/09/29 17:28:37;;;;;;;;;8.25;4.75;;;;;21.97;55.25;101990.28;5037650;28;45347;-76
2023/09/29 17:31:03;;;;;;;;;5.75;5.75;;;;;21.95;55.29;101994.94;5038842;28;47839;-76
2023/09/29 17:33:28;;;;;;;;;6.75;5.00;;;;;21.98;55.44;102002.03;5020713;28;45400;-76
2023/09/29 17:35:53;;;;;;;;;5.50;5.25;;;;;21.94;55.70;102009.50;5039190;28;45355;-76
2023/09/29 17:38:20;;;;;;;;;7.75;5.00;;;;;21.95;55.74;102002.19;5038805;28;45291;-76
2023/09/29 17:40:46;;;;;;;;;6.00;5.50;;;;;21.83;55.02;101996.56;5040486;28;45346;-76
2023/09/29 17:43:11;;;;;;;;;5.00;5.00;;;;;21.92;55.59;102027.75;5032615;28;45389;-76
2023/09/29 17:45:37;;;;;;;;;8.00;5.25;;;;;21.93;55.55;102025.91;5033454;28;45832;-76
2023/09/29 17:48:03;;;;;;;;;5.50;5.25;;;;;21.82;54.76;102002.97;5042309;28;45303;-76
2023/09/29 17:50:29;;;;;;;;;4.50;4.50;;;;;21.87;55.19;102023.53;5041262;28;45383;-76
2023/09/29 17:52:54;;;;;;;;;4.50;4.00;;;;;21.81;54.42;102027.50;5042044;28;45292;-76
2023/09/29 17:55:19;;;;;;;;;5.25;4.50;;;;;21.80;54.13;102039.34;5042194;28;45184;-76
2023/09/29 17:57:45;;;;;;;;;6.75;6.00;;;;;21.78;54.44;102035.84;5042086;28;45217;-76